sensor_id;sensor_type;location;lat;lon;timestamp;temperature;humidity
34095;DHT22;20372;47.080;15.410;2022-11-11T00:01:16;4.30;99.90
34095;DHT22;20372;47.080;15.410;2022-11-11T00:03:42;4.30;99.90
34095;DHT22;20372;47.080;15.410;2022-11-11T00:06:09;4.30;99.90
34095;DHT22;20372;47.080;15.410;2022-11-11T00:08:35;4.50;99.90
34095;DHT22;20372;47.080;15.410;2022-11-11T00:11:04;4.20;99.90
34095;DHT22;20372;47.080;15.410;2022-11-11T00:13:30;4.30;99.90
34095;DHT22;20372;47.080;15.410;2022-11-11T00:16:04;4.40;99.90
34095;DHT22;20372;47.080;15.410;2022-11-11T00:18:30;4.40;99.90
34095;DHT22;20372;47.080;15.410;2022-11-11T00:21:14;4.50;99.90
34095;DHT22;20372;47.080;15.410;2022-11-11T00:23:58;4.50;99.90
34095;DHT22;20372;47.080;15.410;2022-11-11T00:26:42;4.40;99.90
34095;DHT22;20372;47.080;15.410;2022-11-11T00:29:08;4.40;99.90
34095;DHT22;20372;47.080;15.410;2022-11-11T00:31:34;4.40;99.90
34095;DHT22;20372;47.080;15.410;2022-11-11T00:34:00;4.40;99.90
34095;DHT22;20372;47.080;15.410;2022-11-11T00:36:26;4.50;99.90
34095;DHT22;20372;47.080;15.410;2022-11-11T00:38:51;4.40;99.90
34095;DHT22;20372;47.080;15.410;2022-11-11T00:41:20;4.50;99.90
34095;DHT22;20372;47.080;15.410;2022-11-11T00:43:47;4.50;99.90
34095;DHT22;20372;47.080;15.410;2022-11-11T00:46:13;4.40;99.90
34095;DHT22;20372;47.080;15.410;2022-11-11T00:48:57;4.40;99.90
34095;DHT22;20372;47.080;15.410;2022-11-11T00:51:42;4.40;99.90
34095;DHT22;20372;47.080;15.410;2022-11-11T00:54:08;4.30;99.90
34095;DHT22;20372;47.080;15.410;2022-11-11T00:56:34;4.10;99.90
34095;DHT22;20372;47.080;15.410;2022-11-11T00:59:01;4.20;99.90
34095;DHT22;20372;47.080;15.410;2022-11-11T01:01:27;4.10;99.90
34095;DHT22;20372;47.080;15.410;2022-11-11T01:03:52;4.10;99.90
34095;DHT22;20372;47.080;15.410;2022-11-11T01:06:18;4.30;99.90
34095;DHT22;20372;47.080;15.410;2022-11-11T01:08:43;4.20;99.90
34095;DHT22;20372;47.080;15.410;2022-11-11T01:11:16;4.10;99.90
34095;DHT22;20372;47.080;15.410;2022-11-11T01:13:42;4.00;99.90
34095;DHT22;20372;47.080;15.410;2022-11-11T01:16:10;4.00;99.90
34095;DHT22;20372;47.080;15.410;2022-11-11T01:18:36;4.10;99.90
34095;DHT22;20372;47.080;15.410;2022-11-11T01:21:03;3.90;99.90
34095;DHT22;20372;47.080;15.410;2022-11-11T01:23:29;4.00;99.90
34095;DHT22;20372;47.080;15.410;2022-11-11T01:26:00;3.80;99.90
34095;DHT22;20372;47.080;15.410;2022-11-11T01:28:25;3.80;99.90
34095;DHT22;20372;47.080;15.410;2022-11-11T01:30:51;3.90;99.90
34095;DHT22;20372;47.080;15.410;2022-11-11T01:33:17;3.80;99.90
34095;DHT22;20372;47.080;15.410;2022-11-11T01:35:42;3.60;99.90
34095;DHT22;20372;47.080;15.410;2022-11-11T01:38:08;3.80;99.90
34095;DHT22;20372;47.080;15.410;2022-11-11T01:40:44;3.90;99.90
34095;DHT22;20372;47.080;15.410;2022-11-11T01:48:10;3.60;99.90
34095;DHT22;20372;47.080;15.410;2022-11-11T01:50:57;3.60;99.90
34095;DHT22;20372;47.080;15.410;2022-11-11T01:53:22;3.60;99.90
34095;DHT22;20372;47.080;15.410;2022-11-11T01:55:48;3.50;99.90
34095;DHT22;20372;47.080;15.410;2022-11-11T01:58:14;3.40;99.90
34095;DHT22;20372;47.080;15.410;2022-11-11T02:00:41;3.50;99.90
34095;DHT22;20372;47.080;15.410;2022-11-11T02:03:07;3.60;99.90
34095;DHT22;20372;47.080;15.410;2022-11-11T02:05:34;3.50;99.90
34095;DHT22;20372;47.080;15.410;2022-11-11T02:08:17;3.50;99.90
34095;DHT22;20372;47.080;15.410;2022-11-11T02:11:11;3.60;99.90
34095;DHT22;20372;47.080;15.410;2022-11-11T02:13:39;3.70;99.90
34095;DHT22;20372;47.080;15.410;2022-11-11T02:16:23;3.70;99.90
34095;DHT22;20372;47.080;15.410;2022-11-11T02:18:49;3.70;99.90
34095;DHT22;20372;47.080;15.410;2022-11-11T02:21:25;3.60;99.90
34095;DHT22;20372;47.080;15.410;2022-11-11T02:23:57;3.50;99.90
34095;DHT22;20372;47.080;15.410;2022-11-11T02:26:25;3.60;99.90
34095;DHT22;20372;47.080;15.410;2022-11-11T02:28:51;3.50;99.90
34095;DHT22;20372;47.080;15.410;2022-11-11T02:31:18;3.40;99.90
34095;DHT22;20372;47.080;15.410;2022-11-11T02:33:43;3.30;99.90
34095;DHT22;20372;47.080;15.410;2022-11-11T02:36:09;3.30;99.90
34095;DHT22;20372;47.080;15.410;2022-11-11T02:38:39;3.20;99.90
34095;DHT22;20372;47.080;15.410;2022-11-11T02:41:05;3.10;99.90
34095;DHT22;20372;47.080;15.410;2022-11-11T02:43:49;3.20;99.90
34095;DHT22;20372;47.080;15.410;2022-11-11T02:46:14;3.20;99.90
34095;DHT22;20372;47.080;15.410;2022-11-11T02:48:40;3.20;99.90
34095;DHT22;20372;47.080;15.410;2022-11-11T02:51:06;3.10;99.90
34095;DHT22;20372;47.080;15.410;2022-11-11T02:53:33;3.10;99.90
34095;DHT22;20372;47.080;15.410;2022-11-11T02:55:58;3.20;99.90
34095;DHT22;20372;47.080;15.410;2022-11-11T02:58:24;3.20;99.90
34095;DHT22;20372;47.080;15.410;2022-11-11T03:00:49;3.20;99.90
34095;DHT22;20372;47.080;15.410;2022-11-11T03:03:15;3.30;99.90
34095;DHT22;20372;47.080;15.410;2022-11-11T03:05:40;3.30;99.90
34095;DHT22;20372;47.080;15.410;2022-11-11T03:08:06;3.20;99.90
34095;DHT22;20372;47.080;15.410;2022-11-11T03:10:31;3.20;99.90
34095;DHT22;20372;47.080;15.410;2022-11-11T03:12:57;3.10;99.90
34095;DHT22;20372;47.080;15.410;2022-11-11T03:15:23;3.00;99.90
34095;DHT22;20372;47.080;15.410;2022-11-11T03:17:48;3.30;99.90
34095;DHT22;20372;47.080;15.410;2022-11-11T03:20:18;3.20;99.90
34095;DHT22;20372;47.080;15.410;2022-11-11T03:25:27;3.20;99.90
34095;DHT22;20372;47.080;15.410;2022-11-11T03:28:03;3.10;99.90
34095;DHT22;20372;47.080;15.410;2022-11-11T03:30:28;3.10;99.90
34095;DHT22;20372;47.080;15.410;2022-11-11T03:32:54;3.20;99.90
34095;DHT22;20372;47.080;15.410;2022-11-11T03:35:19;3.30;99.90
34095;DHT22;20372;47.080;15.410;2022-11-11T03:37:45;3.10;99.90
34095;DHT22;20372;47.080;15.410;2022-11-11T03:40:29;3.00;99.90
34095;DHT22;20372;47.080;15.410;2022-11-11T03:42:54;3.10;99.90
34095;DHT22;20372;47.080;15.410;2022-11-11T03:45:20;3.10;99.90
34095;DHT22;20372;47.080;15.410;2022-11-11T03:47:45;3.10;99.90
34095;DHT22;20372;47.080;15.410;2022-11-11T03:50:11;3.30;99.90
34095;DHT22;20372;47.080;15.410;2022-11-11T03:52:39;3.40;99.90
34095;DHT22;20372;47.080;15.410;2022-11-11T03:55:05;3.30;99.90
34095;DHT22;20372;47.080;15.410;2022-11-11T03:57:31;3.40;99.90
34095;DHT22;20372;47.080;15.410;2022-11-11T03:59:57;3.30;99.90
34095;DHT22;20372;47.080;15.410;2022-11-11T04:02:22;3.20;99.90
34095;DHT22;20372;47.080;15.410;2022-11-11T04:05:07;3.10;99.90
34095;DHT22;20372;47.080;15.410;2022-11-11T04:07:55;3.10;99.90
34095;DHT22;20372;47.080;15.410;2022-11-11T04:10:39;3.10;99.90
34095;DHT22;20372;47.080;15.410;2022-11-11T04:13:05;3.00;99.90
34095;DHT22;20372;47.080;15.410;2022-11-11T04:15:49;3.00;99.90
34095;DHT22;20372;47.080;15.410;2022-11-11T04:18:30;3.30;99.90
34095;DHT22;20372;47.080;15.410;2022-11-11T04:21:15;3.30;99.90
34095;DHT22;20372;47.080;15.410;2022-11-11T04:23:59;3.30;99.90
34095;DHT22;20372;47.080;15.410;2022-11-11T04:26:24;3.20;99.90
34095;DHT22;20372;47.080;15.410;2022-11-11T04:28:50;3.30;99.90
34095;DHT22;20372;47.080;15.410;2022-11-11T04:31:34;3.30;99.90
34095;DHT22;20372;47.080;15.410;2022-11-11T04:33:59;3.30;99.90
34095;DHT22;20372;47.080;15.410;2022-11-11T04:36:25;3.10;99.90
34095;DHT22;20372;47.080;15.410;2022-11-11T04:38:51;3.00;99.90
34095;DHT22;20372;47.080;15.410;2022-11-11T04:41:35;3.00;99.90
34095;DHT22;20372;47.080;15.410;2022-11-11T04:44:00;3.10;99.90
34095;DHT22;20372;47.080;15.410;2022-11-11T04:46:44;3.00;99.90
34095;DHT22;20372;47.080;15.410;2022-11-11T04:49:10;3.00;99.90
34095;DHT22;20372;47.080;15.410;2022-11-11T04:51:35;3.10;99.90
34095;DHT22;20372;47.080;15.410;2022-11-11T04:54:19;3.00;99.90
34095;DHT22;20372;47.080;15.410;2022-11-11T04:56:45;2.90;99.90
34095;DHT22;20372;47.080;15.410;2022-11-11T04:59:15;2.90;99.90
34095;DHT22;20372;47.080;15.410;2022-11-11T05:01:40;3.00;99.90
34095;DHT22;20372;47.080;15.410;2022-11-11T05:04:24;3.00;99.90
34095;DHT22;20372;47.080;15.410;2022-11-11T05:06:50;2.90;99.90
34095;DHT22;20372;47.080;15.410;2022-11-11T05:09:34;2.90;99.90
34095;DHT22;20372;47.080;15.410;2022-11-11T05:12:00;2.90;99.90
34095;DHT22;20372;47.080;15.410;2022-11-11T05:14:25;2.80;99.90
34095;DHT22;20372;47.080;15.410;2022-11-11T05:17:09;2.80;99.90
34095;DHT22;20372;47.080;15.410;2022-11-11T05:19:53;2.90;99.90
34095;DHT22;20372;47.080;15.410;2022-11-11T05:22:38;2.90;99.90
34095;DHT22;20372;47.080;15.410;2022-11-11T05:25:05;2.90;99.90
34095;DHT22;20372;47.080;15.410;2022-11-11T05:27:49;2.90;99.90
34095;DHT22;20372;47.080;15.410;2022-11-11T05:30:15;2.80;99.90
34095;DHT22;20372;47.080;15.410;2022-11-11T05:32:41;2.70;99.90
34095;DHT22;20372;47.080;15.410;2022-11-11T05:35:07;2.80;99.90
34095;DHT22;20372;47.080;15.410;2022-11-11T05:37:33;2.80;99.90
34095;DHT22;20372;47.080;15.410;2022-11-11T05:39:58;2.90;99.90
34095;DHT22;20372;47.080;15.410;2022-11-11T05:42:24;3.10;99.90
34095;DHT22;20372;47.080;15.410;2022-11-11T05:44:49;3.00;99.90
34095;DHT22;20372;47.080;15.410;2022-11-11T05:47:15;3.30;99.90
34095;DHT22;20372;47.080;15.410;2022-11-11T05:49:41;3.30;99.90
34095;DHT22;20372;47.080;15.410;2022-11-11T05:52:08;3.20;99.90
34095;DHT22;20372;47.080;15.410;2022-11-11T05:54:34;3.00;99.90
34095;DHT22;20372;47.080;15.410;2022-11-11T05:56:59;3.10;99.90
34095;DHT22;20372;47.080;15.410;2022-11-11T05:59:25;3.10;99.90
34095;DHT22;20372;47.080;15.410;2022-11-11T06:01:50;3.10;99.90
34095;DHT22;20372;47.080;15.410;2022-11-11T06:04:16;3.30;99.90
34095;DHT22;20372;47.080;15.410;2022-11-11T06:06:42;3.50;99.90
34095;DHT22;20372;47.080;15.410;2022-11-11T06:09:07;3.40;99.90
34095;DHT22;20372;47.080;15.410;2022-11-11T06:11:33;3.50;99.90
34095;DHT22;20372;47.080;15.410;2022-11-11T06:13:58;3.60;99.90
34095;DHT22;20372;47.080;15.410;2022-11-11T06:16:24;3.60;99.90
34095;DHT22;20372;47.080;15.410;2022-11-11T06:18:50;3.60;99.90
34095;DHT22;20372;47.080;15.410;2022-11-11T06:21:15;3.60;99.90
34095;DHT22;20372;47.080;15.410;2022-11-11T06:23:41;3.80;99.90
34095;DHT22;20372;47.080;15.410;2022-11-11T06:26:08;3.70;99.90
34095;DHT22;20372;47.080;15.410;2022-11-11T06:28:45;4.00;99.90
34095;DHT22;20372;47.080;15.410;2022-11-11T06:31:15;4.10;99.90
34095;DHT22;20372;47.080;15.410;2022-11-11T06:33:41;4.10;99.90
34095;DHT22;20372;47.080;15.410;2022-11-11T06:36:07;4.30;99.90
34095;DHT22;20372;47.080;15.410;2022-11-11T06:38:33;4.40;99.90
34095;DHT22;20372;47.080;15.410;2022-11-11T06:40:59;4.50;99.90
34095;DHT22;20372;47.080;15.410;2022-11-11T06:43:25;4.50;99.90
34095;DHT22;20372;47.080;15.410;2022-11-11T06:45:51;4.60;99.90
34095;DHT22;20372;47.080;15.410;2022-11-11T06:48:17;4.80;99.90
34095;DHT22;20372;47.080;15.410;2022-11-11T06:50:42;4.80;99.90
34095;DHT22;20372;47.080;15.410;2022-11-11T06:53:12;4.80;99.90
34095;DHT22;20372;47.080;15.410;2022-11-11T06:55:38;4.80;99.90
34095;DHT22;20372;47.080;15.410;2022-11-11T06:58:05;5.00;99.90
34095;DHT22;20372;47.080;15.410;2022-11-11T07:00:31;5.00;99.90
34095;DHT22;20372;47.080;15.410;2022-11-11T07:02:56;5.00;99.90
34095;DHT22;20372;47.080;15.410;2022-11-11T07:05:22;5.10;99.90
34095;DHT22;20372;47.080;15.410;2022-11-11T07:07:47;5.20;99.90
34095;DHT22;20372;47.080;15.410;2022-11-11T07:10:13;5.20;99.90
34095;DHT22;20372;47.080;15.410;2022-11-11T07:12:40;5.30;99.90
34095;DHT22;20372;47.080;15.410;2022-11-11T07:15:06;5.20;99.90
34095;DHT22;20372;47.080;15.410;2022-11-11T07:17:32;5.20;99.90
34095;DHT22;20372;47.080;15.410;2022-11-11T07:19:57;5.10;99.90
34095;DHT22;20372;47.080;15.410;2022-11-11T07:22:23;5.10;99.90
34095;DHT22;20372;47.080;15.410;2022-11-11T07:24:49;5.20;99.90
34095;DHT22;20372;47.080;15.410;2022-11-11T07:27:15;5.10;99.90
34095;DHT22;20372;47.080;15.410;2022-11-11T07:29:42;5.20;99.90
34095;DHT22;20372;47.080;15.410;2022-11-11T07:32:08;5.20;99.90
34095;DHT22;20372;47.080;15.410;2022-11-11T07:34:33;5.30;99.90
34095;DHT22;20372;47.080;15.410;2022-11-11T07:36:59;5.60;99.90
34095;DHT22;20372;47.080;15.410;2022-11-11T07:39:25;5.90;99.90
34095;DHT22;20372;47.080;15.410;2022-11-11T07:41:51;6.30;99.90
34095;DHT22;20372;47.080;15.410;2022-11-11T07:44:16;6.80;99.90
34095;DHT22;20372;47.080;15.410;2022-11-11T07:46:42;7.30;99.90
34095;DHT22;20372;47.080;15.410;2022-11-11T07:49:07;8.10;99.90
34095;DHT22;20372;47.080;15.410;2022-11-11T07:51:33;9.30;99.90
34095;DHT22;20372;47.080;15.410;2022-11-11T07:53:59;9.90;99.90
34095;DHT22;20372;47.080;15.410;2022-11-11T07:56:24;9.70;99.90
34095;DHT22;20372;47.080;15.410;2022-11-11T07:58:50;9.20;99.90
34095;DHT22;20372;47.080;15.410;2022-11-11T08:01:15;8.30;99.90
34095;DHT22;20372;47.080;15.410;2022-11-11T08:03:41;8.10;99.90
34095;DHT22;20372;47.080;15.410;2022-11-11T08:06:17;7.80;99.90
34095;DHT22;20372;47.080;15.410;2022-11-11T08:08:43;7.60;99.90
34095;DHT22;20372;47.080;15.410;2022-11-11T08:11:09;7.70;99.90
34095;DHT22;20372;47.080;15.410;2022-11-11T08:13:34;8.10;99.90
34095;DHT22;20372;47.080;15.410;2022-11-11T08:16:12;8.50;99.90
34095;DHT22;20372;47.080;15.410;2022-11-11T08:18:39;9.10;99.90
34095;DHT22;20372;47.080;15.410;2022-11-11T08:21:05;9.10;99.90
34095;DHT22;20372;47.080;15.410;2022-11-11T08:23:31;9.20;99.90
34095;DHT22;20372;47.080;15.410;2022-11-11T08:26:00;9.10;99.90
34095;DHT22;20372;47.080;15.410;2022-11-11T08:28:26;9.60;99.90
34095;DHT22;20372;47.080;15.410;2022-11-11T08:30:52;9.50;99.90
34095;DHT22;20372;47.080;15.410;2022-11-11T08:33:18;9.40;99.90
34095;DHT22;20372;47.080;15.410;2022-11-11T08:35:43;9.10;99.90
34095;DHT22;20372;47.080;15.410;2022-11-11T08:38:09;9.00;99.90
34095;DHT22;20372;47.080;15.410;2022-11-11T08:40:35;9.10;99.90
34095;DHT22;20372;47.080;15.410;2022-11-11T08:43:00;9.10;99.90
34095;DHT22;20372;47.080;15.410;2022-11-11T08:45:26;8.90;99.90
34095;DHT22;20372;47.080;15.410;2022-11-11T08:47:52;8.80;99.90
34095;DHT22;20372;47.080;15.410;2022-11-11T08:50:17;8.70;99.90
34095;DHT22;20372;47.080;15.410;2022-11-11T08:52:47;8.70;99.90
34095;DHT22;20372;47.080;15.410;2022-11-11T08:55:12;8.80;99.90
34095;DHT22;20372;47.080;15.410;2022-11-11T08:57:38;8.80;99.90
34095;DHT22;20372;47.080;15.410;2022-11-11T09:00:04;9.00;99.90
34095;DHT22;20372;47.080;15.410;2022-11-11T09:02:30;9.20;99.90
34095;DHT22;20372;47.080;15.410;2022-11-11T09:04:56;9.30;99.90
34095;DHT22;20372;47.080;15.410;2022-11-11T09:07:21;9.30;99.90
34095;DHT22;20372;47.080;15.410;2022-11-11T09:09:47;9.60;99.90
34095;DHT22;20372;47.080;15.410;2022-11-11T09:12:12;9.80;99.90
34095;DHT22;20372;47.080;15.410;2022-11-11T09:14:38;9.60;99.90
34095;DHT22;20372;47.080;15.410;2022-11-11T09:17:04;9.70;99.90
34095;DHT22;20372;47.080;15.410;2022-11-11T09:19:30;9.50;99.90
34095;DHT22;20372;47.080;15.410;2022-11-11T09:21:55;9.50;99.90
34095;DHT22;20372;47.080;15.410;2022-11-11T09:24:21;9.40;99.90
34095;DHT22;20372;47.080;15.410;2022-11-11T09:26:47;9.50;99.90
34095;DHT22;20372;47.080;15.410;2022-11-11T09:29:14;9.60;99.90
34095;DHT22;20372;47.080;15.410;2022-11-11T09:31:39;9.80;99.90
34095;DHT22;20372;47.080;15.410;2022-11-11T09:34:05;9.90;99.90
34095;DHT22;20372;47.080;15.410;2022-11-11T09:36:33;9.80;99.90
34095;DHT22;20372;47.080;15.410;2022-11-11T09:38:59;9.90;99.90
34095;DHT22;20372;47.080;15.410;2022-11-11T09:44:17;9.80;99.90
34095;DHT22;20372;47.080;15.410;2022-11-11T09:51:47;9.90;99.90
34095;DHT22;20372;47.080;15.410;2022-11-11T09:54:17;10.20;99.90
34095;DHT22;20372;47.080;15.410;2022-11-11T09:56:44;10.00;99.90
34095;DHT22;20372;47.080;15.410;2022-11-11T09:59:11;10.00;99.90
34095;DHT22;20372;47.080;15.410;2022-11-11T10:01:47;9.90;99.90
34095;DHT22;20372;47.080;15.410;2022-11-11T10:06:49;10.40;99.90
34095;DHT22;20372;47.080;15.410;2022-11-11T10:12:32;10.60;99.90
34095;DHT22;20372;47.080;15.410;2022-11-11T10:14:32;10.60;99.90
34095;DHT22;20372;47.080;15.410;2022-11-11T10:21:59;10.70;99.90
34095;DHT22;20372;47.080;15.410;2022-11-11T10:26:51;10.90;99.90
34095;DHT22;20372;47.080;15.410;2022-11-11T10:29:18;11.00;99.90
34095;DHT22;20372;47.080;15.410;2022-11-11T10:32:08;10.80;99.90
34095;DHT22;20372;47.080;15.410;2022-11-11T10:34:33;10.70;99.90
34095;DHT22;20372;47.080;15.410;2022-11-11T10:36:59;10.90;99.90
34095;DHT22;20372;47.080;15.410;2022-11-11T10:39:43;10.90;99.90
34095;DHT22;20372;47.080;15.410;2022-11-11T10:42:17;10.50;99.90
34095;DHT22;20372;47.080;15.410;2022-11-11T10:44:43;10.40;99.90
34095;DHT22;20372;47.080;15.410;2022-11-11T10:50:27;10.70;99.90
34095;DHT22;20372;47.080;15.410;2022-11-11T10:52:34;10.60;99.90
34095;DHT22;20372;47.080;15.410;2022-11-11T10:55:07;10.90;99.90
34095;DHT22;20372;47.080;15.410;2022-11-11T11:00:06;10.80;99.90
34095;DHT22;20372;47.080;15.410;2022-11-11T11:02:44;10.90;99.90
34095;DHT22;20372;47.080;15.410;2022-11-11T11:05:13;10.80;99.90
34095;DHT22;20372;47.080;15.410;2022-11-11T11:07:49;10.90;99.90
34095;DHT22;20372;47.080;15.410;2022-11-11T11:10:23;11.20;99.90
34095;DHT22;20372;47.080;15.410;2022-11-11T11:12:51;11.30;99.90
34095;DHT22;20372;47.080;15.410;2022-11-11T11:15:20;11.30;99.90
34095;DHT22;20372;47.080;15.410;2022-11-11T11:20:31;11.10;99.90
34095;DHT22;20372;47.080;15.410;2022-11-11T11:22:57;11.30;99.90
34095;DHT22;20372;47.080;15.410;2022-11-11T11:25:27;11.30;99.90
34095;DHT22;20372;47.080;15.410;2022-11-11T11:28:04;11.30;99.90
34095;DHT22;20372;47.080;15.410;2022-11-11T11:30:30;11.30;99.90
34095;DHT22;20372;47.080;15.410;2022-11-11T11:33:00;11.40;99.90
34095;DHT22;20372;47.080;15.410;2022-11-11T11:37:54;11.40;99.90
34095;DHT22;20372;47.080;15.410;2022-11-11T11:40:20;11.10;99.90
34095;DHT22;20372;47.080;15.410;2022-11-11T11:42:45;10.90;99.90
34095;DHT22;20372;47.080;15.410;2022-11-11T11:50:16;11.00;99.90
34095;DHT22;20372;47.080;15.410;2022-11-11T11:55:30;10.90;99.90
34095;DHT22;20372;47.080;15.410;2022-11-11T11:58:18;10.80;99.90
34095;DHT22;20372;47.080;15.410;2022-11-11T12:00:50;11.00;99.90
34095;DHT22;20372;47.080;15.410;2022-11-11T12:06:11;11.30;99.90
34095;DHT22;20372;47.080;15.410;2022-11-11T12:08:56;11.30;99.90
34095;DHT22;20372;47.080;15.410;2022-11-11T12:14:07;11.40;99.90
34095;DHT22;20372;47.080;15.410;2022-11-11T12:16:39;11.40;99.90
34095;DHT22;20372;47.080;15.410;2022-11-11T12:19:18;11.60;99.90
34095;DHT22;20372;47.080;15.410;2022-11-11T12:22:35;11.60;99.90
34095;DHT22;20372;47.080;15.410;2022-11-11T12:27:31;11.80;99.90
34095;DHT22;20372;47.080;15.410;2022-11-11T12:45:19;12.30;99.90
34095;DHT22;20372;47.080;15.410;2022-11-11T12:47:57;12.20;99.90
34095;DHT22;20372;47.080;15.410;2022-11-11T13:08:39;12.30;99.90
34095;DHT22;20372;47.080;15.410;2022-11-11T13:16:38;12.40;99.90
34095;DHT22;20372;47.080;15.410;2022-11-11T13:19:05;12.40;99.90
34095;DHT22;20372;47.080;15.410;2022-11-11T13:21:41;12.70;99.90
34095;DHT22;20372;47.080;15.410;2022-11-11T13:24:11;13.10;99.90
34095;DHT22;20372;47.080;15.410;2022-11-11T13:26:38;13.30;99.90
34095;DHT22;20372;47.080;15.410;2022-11-11T13:29:51;13.10;99.90
34095;DHT22;20372;47.080;15.410;2022-11-11T13:31:51;12.80;99.90
34095;DHT22;20372;47.080;15.410;2022-11-11T13:34:17;12.60;99.90
34095;DHT22;20372;47.080;15.410;2022-11-11T13:36:44;12.30;99.90
34095;DHT22;20372;47.080;15.410;2022-11-11T13:39:33;12.30;99.90
34095;DHT22;20372;47.080;15.410;2022-11-11T13:41:56;12.20;99.90
34095;DHT22;20372;47.080;15.410;2022-11-11T13:44:24;12.20;99.90
34095;DHT22;20372;47.080;15.410;2022-11-11T13:46:51;12.20;99.90
34095;DHT22;20372;47.080;15.410;2022-11-11T13:49:27;12.30;99.90
34095;DHT22;20372;47.080;15.410;2022-11-11T13:52:01;12.20;99.90
34095;DHT22;20372;47.080;15.410;2022-11-11T13:54:31;12.10;99.90
34095;DHT22;20372;47.080;15.410;2022-11-11T13:57:02;12.10;99.90
34095;DHT22;20372;47.080;15.410;2022-11-11T13:59:29;12.00;99.90
34095;DHT22;20372;47.080;15.410;2022-11-11T14:10:05;11.80;99.90
34095;DHT22;20372;47.080;15.410;2022-11-11T14:12:35;11.80;99.90
34095;DHT22;20372;47.080;15.410;2022-11-11T14:15:01;11.70;99.90
34095;DHT22;20372;47.080;15.410;2022-11-11T14:17:32;11.70;99.90
34095;DHT22;20372;47.080;15.410;2022-11-11T14:19:58;11.60;99.90
34095;DHT22;20372;47.080;15.410;2022-11-11T14:22:33;11.50;99.90
34095;DHT22;20372;47.080;15.410;2022-11-11T14:25:08;11.40;99.90
34095;DHT22;20372;47.080;15.410;2022-11-11T14:27:35;11.40;99.90
34095;DHT22;20372;47.080;15.410;2022-11-11T14:30:00;11.30;99.90
34095;DHT22;20372;47.080;15.410;2022-11-11T14:32:36;11.20;99.90
34095;DHT22;20372;47.080;15.410;2022-11-11T14:40:11;11.00;99.90
34095;DHT22;20372;47.080;15.410;2022-11-11T14:45:07;11.00;99.90
34095;DHT22;20372;47.080;15.410;2022-11-11T14:47:52;10.90;99.90
34095;DHT22;20372;47.080;15.410;2022-11-11T14:52:52;10.80;99.90
34095;DHT22;20372;47.080;15.410;2022-11-11T14:55:22;10.70;99.90
34095;DHT22;20372;47.080;15.410;2022-11-11T14:57:51;10.60;99.90
34095;DHT22;20372;47.080;15.410;2022-11-11T15:00:20;10.60;99.90
34095;DHT22;20372;47.080;15.410;2022-11-11T15:02:54;10.50;99.90
34095;DHT22;20372;47.080;15.410;2022-11-11T15:05:40;10.40;99.90
34095;DHT22;20372;47.080;15.410;2022-11-11T15:08:24;10.30;99.90
34095;DHT22;20372;47.080;15.410;2022-11-11T15:21:35;9.80;99.90
34095;DHT22;20372;47.080;15.410;2022-11-11T15:29:34;9.40;99.90
34095;DHT22;20372;47.080;15.410;2022-11-11T15:32:11;9.40;99.90
34095;DHT22;20372;47.080;15.410;2022-11-11T15:34:40;9.30;99.90
34095;DHT22;20372;47.080;15.410;2022-11-11T15:37:11;9.20;99.90
34095;DHT22;20372;47.080;15.410;2022-11-11T15:39:39;9.00;99.90
34095;DHT22;20372;47.080;15.410;2022-11-11T15:42:09;8.80;99.90
34095;DHT22;20372;47.080;15.410;2022-11-11T15:44:36;8.90;99.90
34095;DHT22;20372;47.080;15.410;2022-11-11T15:47:01;8.80;99.90
34095;DHT22;20372;47.080;15.410;2022-11-11T15:52:03;8.70;99.90
34095;DHT22;20372;47.080;15.410;2022-11-11T15:54:30;8.60;99.90
34095;DHT22;20372;47.080;15.410;2022-11-11T15:56:57;8.60;99.90
34095;DHT22;20372;47.080;15.410;2022-11-11T15:59:23;8.60;99.90
34095;DHT22;20372;47.080;15.410;2022-11-11T16:01:52;8.50;99.90
34095;DHT22;20372;47.080;15.410;2022-11-11T16:04:19;8.50;99.90
34095;DHT22;20372;47.080;15.410;2022-11-11T16:06:45;8.50;99.90
34095;DHT22;20372;47.080;15.410;2022-11-11T16:09:12;8.40;99.90
34095;DHT22;20372;47.080;15.410;2022-11-11T16:11:39;8.30;99.90
34095;DHT22;20372;47.080;15.410;2022-11-11T16:14:17;8.20;99.90
34095;DHT22;20372;47.080;15.410;2022-11-11T16:16:43;8.20;99.90
34095;DHT22;20372;47.080;15.410;2022-11-11T16:19:42;8.00;99.90
34095;DHT22;20372;47.080;15.410;2022-11-11T16:22:20;7.90;99.90
34095;DHT22;20372;47.080;15.410;2022-11-11T16:24:47;7.80;99.90
34095;DHT22;20372;47.080;15.410;2022-11-11T16:27:15;7.70;99.90
34095;DHT22;20372;47.080;15.410;2022-11-11T16:29:42;7.30;99.90
34095;DHT22;20372;47.080;15.410;2022-11-11T16:34:42;7.40;99.90
34095;DHT22;20372;47.080;15.410;2022-11-11T16:37:09;7.40;99.90
34095;DHT22;20372;47.080;15.410;2022-11-11T16:39:37;7.40;99.90
34095;DHT22;20372;47.080;15.410;2022-11-11T16:42:15;7.50;99.90
34095;DHT22;20372;47.080;15.410;2022-11-11T16:52:40;7.20;99.90
34095;DHT22;20372;47.080;15.410;2022-11-11T16:55:07;7.20;99.90
34095;DHT22;20372;47.080;15.410;2022-11-11T16:57:33;7.10;99.90
34095;DHT22;20372;47.080;15.410;2022-11-11T17:00:00;7.10;99.90
34095;DHT22;20372;47.080;15.410;2022-11-11T17:02:26;7.10;99.90
34095;DHT22;20372;47.080;15.410;2022-11-11T17:04:53;7.00;99.90
34095;DHT22;20372;47.080;15.410;2022-11-11T17:07:26;6.80;99.90
34095;DHT22;20372;47.080;15.410;2022-11-11T17:09:52;6.90;99.90
34095;DHT22;20372;47.080;15.410;2022-11-11T17:12:19;6.90;99.90
34095;DHT22;20372;47.080;15.410;2022-11-11T17:14:53;6.90;99.90
34095;DHT22;20372;47.080;15.410;2022-11-11T17:17:19;6.80;99.90
34095;DHT22;20372;47.080;15.410;2022-11-11T17:19:45;6.80;99.90
34095;DHT22;20372;47.080;15.410;2022-11-11T17:22:10;6.40;99.90
34095;DHT22;20372;47.080;15.410;2022-11-11T17:24:36;6.40;99.90
34095;DHT22;20372;47.080;15.410;2022-11-11T17:27:03;6.60;99.90
34095;DHT22;20372;47.080;15.410;2022-11-11T17:29:28;6.50;99.90
34095;DHT22;20372;47.080;15.410;2022-11-11T17:31:54;6.60;99.90
34095;DHT22;20372;47.080;15.410;2022-11-11T17:34:20;6.70;99.90
34095;DHT22;20372;47.080;15.410;2022-11-11T17:36:46;6.70;99.90
34095;DHT22;20372;47.080;15.410;2022-11-11T17:39:11;6.40;99.90
34095;DHT22;20372;47.080;15.410;2022-11-11T17:41:37;6.50;99.90
34095;DHT22;20372;47.080;15.410;2022-11-11T17:44:02;6.60;99.90
34095;DHT22;20372;47.080;15.410;2022-11-11T17:46:28;6.40;99.90
34095;DHT22;20372;47.080;15.410;2022-11-11T17:48:54;6.30;99.90
34095;DHT22;20372;47.080;15.410;2022-11-11T17:51:23;6.10;99.90
34095;DHT22;20372;47.080;15.410;2022-11-11T17:53:49;6.10;99.90
34095;DHT22;20372;47.080;15.410;2022-11-11T17:56:15;6.30;99.90
34095;DHT22;20372;47.080;15.410;2022-11-11T17:58:40;6.30;99.90
34095;DHT22;20372;47.080;15.410;2022-11-11T18:01:10;6.40;99.90